Time;durP1;ratioP1;P1;durP2;ratioP2;P2;SDS_P1;SDS_P2;PMS_P1;PMS_P2;Temp;Humidity;BMP_temperature;BMP_pressure;BME280_temperature;BME280_humidity;BME280_pressure;Samples;Min_cycle;Max_cycle;Signal;HPM_P1;HPM_P2
2022/09/20 00:01:34;;;;;;;1.60;0.90;;;;;;;7.88;74.95;94439.38;5043760;28;20191;-70
2022/09/20 00:04:18;;;;;;;2.73;1.30;;;;;;;7.73;75.18;94436.69;5042647;28;20219;-70
2022/09/20 00:07:02;;;;;;;2.77;1.03;;;;;;;7.69;74.72;94437.22;5033095;28;20626;-70
2022/09/20 00:09:46;;;;;;;1.87;0.90;;;;;;;7.58;75.08;94441.00;5045090;28;20199;-70
2022/09/20 00:12:30;;;;;;;0.80;0.80;;;;;;;7.45;75.31;94438.97;5033514;28;20675;-70
2022/09/20 00:15:15;;;;;;;2.03;0.80;;;;;;;7.34;75.36;94430.53;5042117;28;20226;-70
2022/09/20 00:17:59;;;;;;;1.87;0.97;;;;;;;7.18;75.83;94433.22;5044929;28;20199;-70
2022/09/20 00:20:48;;;;;;;1.27;0.73;;;;;;;7.07;76.66;94432.59;5040737;28;20191;-70
2022/09/20 00:23:33;;;;;;;1.97;1.10;;;;;;;7.03;76.83;94425.28;5038961;28;20190;-70
2022/09/20 00:26:17;;;;;;;3.40;1.13;;;;;;;6.91;77.25;94427.44;5045482;28;20198;-70
2022/09/20 00:29:01;;;;;;;0.93;0.80;;;;;;;6.93;76.81;94428.09;5038652;28;20213;-70
2022/09/20 00:31:46;;;;;;;1.00;0.90;;;;;;;6.84;77.46;94424.72;5033707;28;20214;-71
2022/09/20 00:37:40;;;;;;;1.93;0.90;;;;;;;6.99;77.15;94424.81;5042950;28;20194;-70
2022/09/20 00:40:29;;;;;;;2.73;0.90;;;;;;;7.09;77.24;94427.19;5035878;28;20206;-70
2022/09/20 00:43:14;;;;;;;1.87;0.70;;;;;;;7.23;76.79;94416.03;5040121;28;20282;-71
2022/09/20 00:46:01;;;;;;;2.33;1.00;;;;;;;7.29;76.00;94419.78;5036628;28;20196;-70
2022/09/20 00:48:47;;;;;;;1.37;1.00;;;;;;;7.36;76.33;94418.13;5037819;28;20633;-70
2022/09/20 00:51:36;;;;;;;1.50;1.13;;;;;;;7.30;76.72;94413.56;5031244;28;20249;-70
2022/09/20 00:54:24;;;;;;;3.33;1.03;;;;;;;7.31;76.40;94404.75;5044035;28;20288;-70
2022/09/20 00:57:08;;;;;;;1.07;0.97;;;;;;;7.31;76.77;94404.75;5040087;28;20195;-70
2022/09/20 00:59:52;;;;;;;2.40;1.00;;;;;;;7.11;76.93;94404.34;5042717;28;20198;-70
2022/09/20 01:02:41;;;;;;;1.83;0.90;;;;;;;7.15;77.34;94408.25;5039120;28;20195;-70
2022/09/20 01:05:26;;;;;;;2.27;1.30;;;;;;;7.14;76.95;94406.63;5039124;28;20207;-70
2022/09/20 01:08:11;;;;;;;2.63;1.17;;;;;;;7.20;77.45;94405.13;5037160;28;20203;-70
2022/09/20 01:10:55;;;;;;;2.30;1.27;;;;;;;7.24;76.96;94403.81;5049242;28;20277;-70
2022/09/20 01:13:40;;;;;;;1.53;0.97;;;;;;;7.38;76.37;94412.72;5045048;28;20199;-70
2022/09/20 01:16:26;;;;;;;3.57;1.40;;;;;;;7.35;76.21;94413.06;5048408;28;20516;-70
2022/09/20 01:19:21;;;;;;;2.33;1.10;;;;;;;7.41;76.21;94406.34;5039326;28;20195;-70
2022/09/20 01:22:20;;;;;;;2.97;1.20;;;;;;;7.54;75.97;94398.75;5045829;28;20238;-70
2022/09/20 01:25:23;;;;;;;2.03;1.10;;;;;;;7.75;75.50;94405.94;5048881;28;20611;-70
2022/09/20 01:28:07;;;;;;;3.73;1.30;;;;;;;7.67;74.50;94403.41;5046731;28;20217;-70
2022/09/20 01:31:05;;;;;;;1.73;1.00;;;;;;;7.81;74.62;94414.91;5048550;28;20229;-70
2022/09/20 01:33:57;;;;;;;1.60;1.10;;;;;;;7.65;74.56;94402.75;5041586;28;20686;-71
2022/09/20 01:36:51;;;;;;;1.10;1.00;;;;;;;7.70;74.57;94400.44;5043513;28;20214;-70
2022/09/20 01:39:50;;;;;;;4.13;1.10;;;;;;;7.78;74.09;94399.59;5044376;28;20199;-71
2022/09/20 01:42:37;;;;;;;1.30;1.03;;;;;;;7.84;74.00;94400.66;5043069;28;20343;-71
2022/09/20 01:45:27;;;;;;;1.57;1.23;;;;;;;7.77;73.61;94401.38;5047962;28;20289;-70
2022/09/20 01:48:32;;;;;;;3.57;1.00;;;;;;;7.77;73.94;94403.97;5043527;28;20203;-70
2022/09/20 01:51:29;;;;;;;3.97;1.40;;;;;;;7.51;74.26;94404.31;5041316;28;20202;-70
2022/09/20 01:54:41;;;;;;;2.30;1.20;;;;;;;7.40;74.43;94402.09;5045390;28;20242;-70
2022/09/20 01:57:41;;;;;;;1.53;1.23;;;;;;;7.29;75.53;94404.13;5047602;28;20320;-71
2022/09/20 02:00:30;;;;;;;2.40;1.10;;;;;;;7.12;76.16;94402.56;5047596;28;20198;-70
2022/09/20 02:03:45;;;;;;;4.07;1.33;;;;;;;6.99;76.96;94403.13;5044826;28;20209;-70
2022/09/20 02:06:35;;;;;;;2.10;1.00;;;;;;;6.77;77.29;94401.06;5045867;28;20260;-70
2022/09/20 02:10:06;;;;;;;2.37;1.20;;;;;;;6.57;78.03;94399.81;5046315;28;20281;-71
2022/09/20 02:12:52;;;;;;;1.63;1.03;;;;;;;6.39;78.66;94395.59;5042719;28;20366;-70
2022/09/20 02:15:57;;;;;;;1.87;1.40;;;;;;;6.25;79.18;94397.09;5050716;28;20218;-71
2022/09/20 02:19:09;;;;;;;5.23;2.53;;;;;;;6.15;79.18;94392.09;5037903;28;20198;-70
2022/09/20 02:22:02;;;;;;;5.23;2.60;;;;;;;6.03;79.61;94390.78;5043823;28;20594;-70
2022/09/20 02:24:52;;;;;;;6.40;2.37;;;;;;;5.85;80.00;94386.53;5045912;28;20182;-70
2022/09/20 02:27:57;;;;;;;2.37;1.63;;;;;;;5.74;80.05;94387.63;5045797;28;20281;-70
2022/09/20 02:30:51;;;;;;;3.80;1.37;;;;;;;5.62;80.63;94383.72;5043352;28;20225;-70
2022/09/20 02:33:50;;;;;;;2.33;1.40;;;;;;;5.53;80.81;94388.13;5050010;28;20264;-70
2022/09/20 02:36:54;;;;;;;1.77;1.27;;;;;;;5.41;80.86;94389.41;5042804;28;20226;-70
2022/09/20 02:40:11;;;;;;;3.17;1.60;;;;;;;5.38;81.14;94387.91;5037354;28;20206;-70
2022/09/20 02:43:13;;;;;;;1.93;1.27;;;;;;;5.24;80.90;94391.19;5037868;28;20561;-70
2022/09/20 02:46:28;;;;;;;1.20;1.10;;;;;;;5.11;80.92;94396.81;5044780;28;20201;-70
2022/09/20 02:49:28;;;;;;;2.23;1.30;;;;;;;5.04;81.33;94398.41;5041943;28;20226;-70
2022/09/20 02:52:43;;;;;;;3.13;1.30;;;;;;;5.06;81.22;94405.09;5042750;28;20230;-70
2022/09/20 02:56:04;;;;;;;1.80;1.23;;;;;;;5.08;81.56;94407.53;5039483;28;20222;-70
2022/09/20 02:59:12;;;;;;;3.83;1.20;;;;;;;5.19;81.47;94401.25;5040239;28;20208;-70
2022/09/20 03:02:08;;;;;;;4.13;1.33;;;;;;;5.30;80.92;94406.16;5044655;28;20280;-68
2022/09/20 03:04:55;;;;;;;1.57;0.97;;;;;;;5.36;80.45;94417.72;5048720;28;20202;-70
2022/09/20 03:08:03;;;;;;;3.33;1.10;;;;;;;5.44;80.76;94415.94;5041913;28;20194;-70
2022/09/20 03:11:02;;;;;;;1.30;1.20;;;;;;;5.48;80.61;94413.84;5035882;28;20675;-70
2022/09/20 03:14:44;;;;;;;2.77;1.20;;;;;;;5.49;80.81;94412.84;5044355;28;20198;-70
2022/09/20 03:17:48;;;;;;;2.97;1.20;;;;;;;5.43;80.73;94413.50;5031609;28;20237;-70
2022/09/20 03:20:35;;;;;;;7.70;1.30;;;;;;;5.68;80.53;94410.94;5040741;28;20194;-70
2022/09/20 03:23:40;;;;;;;4.43;1.17;;;;;;;5.59;80.16;94407.50;5046911;28;20194;-70
2022/09/20 03:26:45;;;;;;;2.47;1.37;;;;;;;5.57;80.06;94410.28;5035471;28;20586;-69
2022/09/20 03:29:51;;;;;;;2.17;1.47;;;;;;;5.53;80.09;94415.94;5044187;28;20608;-69
2022/09/20 03:32:58;;;;;;;2.87;1.53;;;;;;;5.75;80.37;94412.72;5043594;28;20224;-69
2022/09/20 03:36:18;;;;;;;3.00;1.20;;;;;;;5.68;79.69;94421.34;5045114;28;20441;-69
2022/09/20 03:39:05;;;;;;;3.90;1.33;;;;;;;5.64;79.43;94412.22;5045648;28;20603;-70
2022/09/20 03:42:12;;;;;;;2.20;1.20;;;;;;;5.60;79.51;94409.13;5038275;28;20203;-69
2022/09/20 03:45:04;;;;;;;1.77;0.90;;;;;;;5.56;79.90;94413.03;5048840;28;20243;-69
2022/09/20 03:48:06;;;;;;;3.73;1.33;;;;;;;5.58;79.93;94419.72;5043022;28;20666;-70
2022/09/20 03:51:15;;;;;;;2.40;1.13;;;;;;;5.68;79.72;94416.16;5042099;28;20269;-69
2022/09/20 03:54:08;;;;;;;3.47;1.40;;;;;;;5.88;80.27;94414.84;5041719;28;20222;-70
2022/09/20 03:57:05;;;;;;;5.30;1.40;;;;;;;5.97;79.75;94413.06;5045322;28;20202;-70
2022/09/20 03:59:53;;;;;;;4.07;1.13;;;;;;;5.94;79.40;94418.59;5038448;28;20210;-70
2022/09/20 04:03:05;;;;;;;7.33;1.27;;;;;;;5.86;79.05;94419.41;5037963;28;20199;-70
2022/09/20 04:06:21;;;;;;;5.37;1.27;;;;;;;5.83;78.99;94419.75;5044633;28;20198;-70
2022/09/20 04:09:28;;;;;;;1.43;1.10;;;;;;;5.68;78.71;94413.53;5041394;28;20198;-69
2022/09/20 04:12:49;;;;;;;3.27;1.70;;;;;;;5.58;79.21;94416.28;5040880;28;20570;-70
2022/09/20 04:15:55;;;;;;;4.97;1.20;;;;;;;5.48;79.41;94411.22;5038992;28;20206;-70
2022/09/20 04:18:50;;;;;;;7.40;2.03;;;;;;;5.26;80.00;94412.66;5046411;28;20202;-69
2022/09/20 04:21:55;;;;;;;1.97;1.17;;;;;;;5.43;80.53;94411.69;5049036;28;20289;-69
2022/09/20 04:25:16;;;;;;;5.70;2.03;;;;;;;5.22;80.96;94414.75;5044939;28;20651;-70
2022/09/20 04:28:08;;;;;;;3.43;1.57;;;;;;;5.13;80.62;94408.72;5050946;28;20256;-70
2022/09/20 04:31:01;;;;;;;4.13;1.57;;;;;;;5.04;81.12;94401.84;5043755;28;20195;-70
2022/09/20 04:33:49;;;;;;;4.80;1.63;;;;;;;5.00;81.13;94406.53;5048250;28;20202;-69
2022/09/20 04:36:54;;;;;;;3.33;1.40;;;;;;;5.07;81.48;94403.31;5058442;28;20330;-70
2022/09/20 04:39:44;;;;;;;2.97;1.70;;;;;;;5.16;81.70;94412.78;5039234;28;20221;-70
2022/09/20 04:42:44;;;;;;;6.03;1.43;;;;;;;5.38;81.38;94419.16;5042246;28;20201;-70
2022/09/20 04:45:50;;;;;;;6.60;1.53;;;;;;;5.49;80.56;94420.66;5048235;28;20194;-70
2022/09/20 04:48:48;;;;;;;4.27;1.70;;;;;;;5.59;80.26;94410.91;5049379;28;20331;-70
2022/09/20 04:51:38;;;;;;;3.50;1.70;;;;;;;5.51;79.88;94412.69;5043062;28;20194;-70
2022/09/20 04:54:44;;;;;;;5.83;1.90;;;;;;;5.64;80.09;94418.25;5048986;28;20691;-70
2022/09/20 04:57:46;;;;;;;9.80;2.17;;;;;;;5.77;79.69;94409.13;5054931;28;20203;-70
2022/09/20 05:00:59;;;;;;;3.57;1.73;;;;;;;5.71;79.48;94413.22;5047937;28;20190;-69
2022/09/20 05:04:21;;;;;;;5.13;2.00;;;;;;;5.75;79.28;94406.72;5025502;28;20274;-70
2022/09/20 05:07:26;;;;;;;6.00;1.50;;;;;;;5.98;78.28;94414.69;5049041;28;20199;-70
2022/09/20 05:10:32;;;;;;;3.77;1.40;;;;;;;5.85;78.65;94412.56;5042534;28;20214;-70
2022/09/20 05:13:32;;;;;;;4.27;1.77;;;;;;;5.97;78.95;94420.06;5042994;28;20693;-70
2022/09/20 05:16:42;;;;;;;6.47;1.30;;;;;;;6.22;77.82;94423.50;5052019;28;20292;-69
2022/09/20 05:19:54;;;;;;;8.37;2.27;;;;;;;6.30;77.50;94430.50;5047300;28;20198;-69
2022/09/20 05:23:14;;;;;;;5.13;2.33;;;;;;;6.22;77.16;94428.72;5060605;28;20198;-70
2022/09/20 05:26:06;;;;;;;4.73;2.43;;;;;;;6.22;76.98;94436.53;5048167;28;20667;-70
2022/09/20 05:29:14;;;;;;;4.73;2.30;;;;;;;6.24;76.94;94434.59;5042982;28;20247;-69
2022/09/20 05:32:23;;;;;;;3.23;1.57;;;;;;;6.41;76.51;94439.78;5043867;28;20217;-69
2022/09/20 05:35:30;;;;;;;8.23;5.60;;;;;;;6.41;75.67;94440.59;5042247;28;20759;-69
2022/09/20 05:38:58;;;;;;;26.63;16.30;;;;;;;6.68;75.52;94432.56;5049169;28;20364;-69
2022/09/20 05:41:55;;;;;;;8.63;4.53;;;;;;;6.77;75.25;94440.19;5035517;28;20222;-69
2022/09/20 05:45:17;;;;;;;29.10;19.93;;;;;;;6.90;74.70;94439.69;5042606;28;20240;-69
2022/09/20 05:48:21;;;;;;;11.93;7.40;;;;;;;6.99;74.61;94450.91;5041981;28;20188;-70
2022/09/20 05:51:24;;;;;;;8.13;2.23;;;;;;;7.11;74.22;94453.16;5039523;28;20598;-69
2022/09/20 05:54:24;;;;;;;5.40;1.83;;;;;;;7.12;73.91;94452.97;5040535;28;20309;-70
2022/09/20 05:57:45;;;;;;;5.17;1.63;;;;;;;7.28;72.73;94453.88;5041835;28;20308;-69
2022/09/20 06:00:39;;;;;;;5.70;2.50;;;;;;;7.31;72.99;94459.59;5041871;28;20545;-69
2022/09/20 06:03:41;;;;;;;8.13;2.50;;;;;;;7.28;72.87;94467.78;5039801;28;20713;-69
2022/09/20 06:06:49;;;;;;;4.93;1.50;;;;;;;7.37;72.55;94460.72;5045997;28;20301;-70
2022/09/20 06:09:54;;;;;;;4.40;1.37;;;;;;;7.50;71.91;94458.34;5043319;28;20356;-69
2022/09/20 06:13:10;;;;;;;3.73;1.27;;;;;;;7.57;71.66;94458.50;5041211;28;20241;-69
2022/09/20 06:16:03;;;;;;;5.70;1.33;;;;;;;7.74;71.06;94459.22;5040119;28;20222;-69
2022/09/20 06:19:24;;;;;;;5.07;1.30;;;;;;;7.80;70.73;94458.53;5042566;28;20224;-70
2022/09/20 06:22:18;;;;;;;2.40;1.20;;;;;;;7.86;70.76;94459.66;4987662;28;20199;-69
2022/09/20 06:25:05;;;;;;;6.53;1.43;;;;;;;8.08;70.19;94465.03;5048425;28;20224;-69
2022/09/20 06:28:05;;;;;;;4.00;1.33;;;;;;;8.32;69.60;94463.22;5036799;28;20210;-69
2022/09/20 06:30:52;;;;;;;2.53;1.20;;;;;;;8.60;68.62;94462.69;5045425;28;20752;-70
2022/09/20 06:33:49;;;;;;;3.97;1.57;;;;;;;8.62;68.56;94451.06;5046967;28;20233;-69
2022/09/20 06:42:53;;;;;;;4.10;1.53;;;;;;;8.81;66.53;94454.94;5034132;28;20919;-69
2022/09/20 06:45:37;;;;;;;2.77;1.20;;;;;;;8.95;66.13;94449.91;5046815;28;20194;-69
2022/09/20 06:48:23;;;;;;;3.90;1.10;;;;;;;9.04;65.67;94451.44;5046537;28;20194;-69
2022/09/20 06:51:08;;;;;;;5.53;1.50;;;;;;;9.24;66.07;94448.28;5047894;28;20205;-69
2022/09/20 06:53:54;;;;;;;5.87;1.77;;;;;;;9.43;65.12;94452.94;5046669;28;20248;-69
2022/09/20 06:56:39;;;;;;;6.30;1.30;;;;;;;9.51;64.04;94451.22;5042461;28;20242;-69
2022/09/20 06:59:23;;;;;;;5.23;1.73;;;;;;;10.17;64.11;94458.97;5042711;28;20202;-69
2022/09/20 07:02:07;;;;;;;2.70;1.30;;;;;;;10.49;63.20;94461.28;5036495;28;20203;-69
2022/09/20 07:04:54;;;;;;;8.57;1.17;;;;;;;10.32;62.77;94461.50;5034428;28;20198;-69
2022/09/20 07:07:38;;;;;;;6.77;1.60;;;;;;;10.41;62.22;94457.00;5035699;28;20203;-69
2022/09/20 07:10:23;;;;;;;2.50;1.23;;;;;;;10.14;60.96;94458.50;5032641;28;20269;-69
2022/09/20 07:13:10;;;;;;;2.47;1.03;;;;;;;10.07;63.35;94463.72;5044237;28;20234;-69
2022/09/20 07:16:02;;;;;;;2.43;1.40;;;;;;;9.88;63.93;94459.88;5044210;28;20218;-69
2022/09/20 07:18:47;;;;;;;4.33;1.20;;;;;;;9.89;64.32;94461.50;5033575;28;20195;-69
2022/09/20 07:21:31;;;;;;;2.20;1.10;;;;;;;9.87;64.52;94458.25;5053391;28;20220;-69
2022/09/20 07:24:15;;;;;;;4.53;1.20;;;;;;;9.89;64.05;94466.75;5044525;28;20588;-70
2022/09/20 07:27:02;;;;;;;4.97;1.20;;;;;;;9.78;65.48;94472.47;5048102;28;20209;-70
2022/09/20 07:29:46;;;;;;;2.03;1.17;;;;;;;9.85;64.67;94471.56;5032409;28;20260;-70
2022/09/20 07:32:31;;;;;;;5.30;1.87;;;;;;;9.75;64.50;94473.66;5034696;28;20666;-70
2022/09/20 07:35:15;;;;;;;3.80;1.40;;;;;;;9.94;64.03;94480.13;5037393;28;20260;-70
2022/09/20 07:38:00;;;;;;;7.43;1.80;;;;;;;9.94;63.99;94482.75;5043817;28;20198;-69
2022/09/20 07:40:45;;;;;;;5.03;1.70;;;;;;;10.08;63.24;94478.47;5037438;28;20255;-70
2022/09/20 07:43:30;;;;;;;5.53;1.40;;;;;;;10.32;63.60;94486.97;5037870;28;20553;-70
2022/09/20 07:46:14;;;;;;;3.20;1.70;;;;;;;10.20;62.91;94489.25;5034659;28;20191;-70
2022/09/20 07:48:58;;;;;;;4.47;2.07;;;;;;;10.37;62.51;94489.00;5039631;28;20230;-70
2022/09/20 07:51:42;;;;;;;5.23;2.00;;;;;;;10.43;62.96;94485.66;5043400;28;20401;-70
2022/09/20 07:54:27;;;;;;;5.30;1.60;;;;;;;10.16;62.96;94493.25;5041461;28;20222;-70
2022/09/20 07:57:12;;;;;;;5.53;2.40;;;;;;;10.22;62.83;94497.75;5045996;28;20272;-70
2022/09/20 07:59:56;;;;;;;9.27;2.80;;;;;;;10.17;64.43;94487.84;5033268;28;20227;-70
2022/09/20 08:02:40;;;;;;;5.50;2.10;;;;;;;10.73;62.94;94488.13;5039728;28;20194;-70
2022/09/20 08:05:26;;;;;;;5.03;2.70;;;;;;;10.66;62.48;94484.63;5038948;28;20199;-70
2022/09/20 08:08:10;;;;;;;4.93;2.80;;;;;;;11.23;61.33;94484.63;5048014;28;20191;-70
2022/09/20 08:11:05;;;;;;;7.47;1.90;;;;;;;11.13;60.70;94495.47;5047279;28;20288;-70
2022/09/20 08:13:51;;;;;;;7.40;1.77;;;;;;;11.91;59.89;94482.06;5043328;28;20745;-70
2022/09/20 08:16:39;;;;;;;5.67;1.80;;;;;;;12.37;58.61;94480.56;5049555;28;20236;-70
2022/09/20 08:19:23;;;;;;;8.43;2.13;;;;;;;12.69;57.24;94474.69;5048742;28;20198;-70
2022/09/20 08:22:09;;;;;;;4.60;1.90;;;;;;;12.31;59.36;94486.63;5046373;28;20206;-70
2022/09/20 08:24:53;;;;;;;10.73;2.57;;;;;;;12.07;58.71;94491.44;5044681;28;20229;-70
2022/09/20 08:27:38;;;;;;;34.07;17.73;;;;;;;11.21;61.32;94500.56;5044602;28;20659;-70
2022/09/20 08:30:22;;;;;;;8.40;2.47;;;;;;;11.32;61.52;94492.16;5043289;28;20203;-70
2022/09/20 08:33:07;;;;;;;5.33;3.10;;;;;;;11.73;61.76;94493.13;5035360;28;20209;-70
2022/09/20 08:35:50;;;;;;;4.03;2.23;;;;;;;11.98;59.22;94486.56;5032148;28;20246;-71
2022/09/20 08:38:35;;;;;;;11.83;3.97;;;;;;;12.15;58.85;94495.75;5045835;28;20405;-70
2022/09/20 08:41:37;;;;;;;25.60;18.40;;;;;;;11.64;60.24;94499.56;5031447;28;20199;-69
2022/09/20 08:44:25;;;;;;;11.23;7.13;;;;;;;11.01;61.90;94508.34;5038536;28;20724;-70
2022/09/20 08:47:26;;;;;;;3.80;2.60;;;;;;;10.54;63.59;94507.97;5037535;28;20615;-70
2022/09/20 08:50:14;;;;;;;8.40;3.67;;;;;;;10.30;64.92;94507.34;5042102;28;20325;-69
2022/09/20 08:53:04;;;;;;;11.00;5.90;;;;;;;10.21;65.46;94505.81;5040173;28;20225;-69
2022/09/20 08:55:48;;;;;;;6.27;1.83;;;;;;;10.23;65.82;94509.88;5040169;28;20325;-70
2022/09/20 08:58:33;;;;;;;17.50;12.57;;;;;;;10.10;66.92;94507.13;5037454;28;20202;-70
2022/09/20 09:01:21;;;;;;;4.93;3.40;;;;;;;10.10;68.16;94500.06;5035887;28;20199;-69
2022/09/20 09:04:14;;;;;;;5.77;3.90;;;;;;;9.94;67.64;94513.41;5043219;28;20213;-70
2022/09/20 09:06:58;;;;;;;9.33;5.33;;;;;;;10.06;68.89;94513.72;5049511;28;20231;-69
2022/09/20 09:09:45;;;;;;;9.00;3.23;;;;;;;10.02;68.55;94515.94;5038687;28;20672;-69
2022/09/20 09:12:34;;;;;;;15.13;8.33;;;;;;;9.72;68.89;94522.03;5036703;28;20203;-69
2022/09/20 09:15:28;;;;;;;9.20;5.60;;;;;;;9.66;68.43;94511.47;5050375;28;20210;-69
2022/09/20 09:18:13;;;;;;;7.53;3.57;;;;;;;9.64;69.55;94516.09;5036817;28;20660;-70
2022/09/20 09:20:58;;;;;;;5.80;2.80;;;;;;;9.73;68.66;94517.63;5039805;28;20195;-70
2022/09/20 09:23:49;;;;;;;5.53;2.30;;;;;;;9.58;70.09;94533.38;5038887;28;20202;-70
2022/09/20 09:26:42;;;;;;;7.17;2.50;;;;;;;9.38;70.03;94527.84;5043039;28;20198;-69
2022/09/20 09:29:26;;;;;;;5.80;2.93;;;;;;;9.20;69.99;94531.66;5036924;28;20282;-69
2022/09/20 09:32:27;;;;;;;10.70;4.87;;;;;;;9.54;72.43;94537.34;5041735;28;20199;-69
2022/09/20 09:35:29;;;;;;;5.87;2.47;;;;;;;9.97;71.43;94537.44;5034974;28;20225;-70
2022/09/20 09:38:20;;;;;;;6.23;2.40;;;;;;;9.94;68.03;94535.19;5030758;28;20237;-70
2022/09/20 09:41:24;;;;;;;4.97;2.37;;;;;;;9.68;68.37;94527.84;5034076;28;20233;-68
2022/09/20 09:44:34;;;;;;;5.33;2.47;;;;;;;9.67;68.45;94529.66;5043351;28;20198;-69
2022/09/20 09:47:30;;;;;;;9.27;2.90;;;;;;;10.07;67.73;94531.09;5040174;28;20234;-70
2022/09/20 09:50:32;;;;;;;5.77;2.83;;;;;;;9.80;66.87;94528.16;5039998;28;20210;-70
2022/09/20 09:53:21;;;;;;;6.20;1.97;;;;;;;10.84;69.23;94523.56;5039178;28;20233;-60
